Terminal Aerodrome Forecast
Issued by NWS

Home | Current Version | Previous Version | Text Only | Print | Product List | Glossary On
Versions: 1 2 3 4 5 6 7 8 9 10 11 12 13 14 15 16
080
FTUS46 KMTR 281729
TAFSTS
TAF
KSTS 281729Z 2818/2918 16004KT P6SM SKC
     FM282000 17008KT P6SM SKC
     FM282200 15012KT P6SM SKC
     FM290500 16006KT P6SM SCT012
     FM290700 16003KT P6SM BKN010
     FM290900 VRB03KT P6SM OVC007
     FM291400 00000KT 2SM BR OVC004
     FM291700 00000KT P6SM SKC=

USA.gov is the U.S. government's official web portal to all federal, state and local government web resources and services.